createdAt,value
2019-06-07T00:01:48.789Z,14.40
2019-06-07T00:05:17.162Z,14.70
2019-06-07T00:08:38.453Z,14.90
2019-06-07T00:12:02.283Z,14.90
2019-06-07T00:15:29.014Z,14.80
2019-06-07T00:18:51.467Z,14.70
2019-06-07T00:22:28.519Z,14.60
2019-06-07T00:25:41.163Z,14.40
2019-06-07T00:29:05.993Z,14.40
2019-06-07T00:32:29.976Z,14.20
2019-06-07T00:35:53.868Z,14.20
2019-06-07T00:39:21.942Z,14.20
2019-06-07T00:42:43.605Z,14.30
2019-06-07T00:46:08.070Z,14.40
2019-06-07T00:49:40.473Z,14.40
2019-06-07T00:56:23.531Z,14.30
2019-06-07T00:59:47.740Z,14.30
2019-06-07T01:03:12.742Z,14.30
2019-06-07T01:06:37.643Z,14.30
2019-06-07T01:10:01.785Z,14.40
2019-06-07T01:13:26.973Z,14.30
2019-06-07T01:16:57.284Z,14.20
2019-06-07T01:20:21.218Z,14.10
2019-06-07T01:27:09.083Z,13.90
2019-06-07T01:30:33.046Z,13.80
2019-06-07T01:33:56.950Z,13.80
2019-06-07T01:37:25.023Z,13.80
2019-06-07T01:40:46.341Z,13.80
2019-06-07T01:44:10.225Z,13.60
2019-06-07T01:47:34.112Z,13.60
2019-06-07T01:50:58.070Z,13.60
2019-06-07T01:57:48.657Z,13.50
2019-06-07T02:01:12.702Z,13.50
2019-06-07T02:04:36.577Z,13.50
2019-06-07T02:08:00.559Z,13.40
2019-06-07T02:11:25.994Z,13.40
2019-06-07T02:14:49.859Z,13.30
2019-06-07T02:18:13.583Z,13.40
2019-06-07T02:21:37.400Z,13.10
2019-06-07T02:28:37.044Z,12.90
2019-06-07T02:31:52.109Z,13.10
2019-06-07T02:35:16.214Z,13.00
2019-06-07T02:38:39.981Z,13.00
2019-06-07T02:42:03.980Z,13.20
2019-06-07T02:45:35.526Z,13.30
2019-06-07T02:48:54.567Z,13.30
2019-06-07T02:52:18.807Z,13.40
2019-06-07T02:56:32.810Z,13.60
2019-06-07T02:59:08.066Z,13.70
2019-06-07T03:02:40.252Z,13.70
2019-06-07T03:05:58.260Z,13.60
2019-06-07T03:09:22.291Z,13.60
2019-06-07T03:12:48.930Z,13.50
2019-06-07T03:16:14.448Z,13.40
2019-06-07T03:19:41.599Z,13.50
2019-06-07T03:23:05.667Z,13.60
2019-06-07T03:26:31.326Z,13.80
2019-06-07T03:29:55.199Z,13.80
2019-06-07T03:33:18.981Z,13.80
2019-06-07T03:36:42.883Z,13.90
2019-06-07T03:40:07.570Z,14.00
2019-06-07T03:43:35.037Z,14.20
2019-06-07T03:46:56.974Z,14.20
2019-06-07T03:50:20.747Z,14.30
2019-06-07T03:53:44.714Z,14.40
2019-06-07T03:57:08.593Z,14.60
2019-06-07T04:00:36.596Z,14.80
2019-06-07T04:03:58.332Z,14.90
2019-06-07T04:07:22.210Z,15.10
2019-06-07T04:10:59.038Z,15.30
2019-06-07T04:14:11.789Z,15.50
2019-06-07T04:17:37.105Z,15.60
2019-06-07T04:21:01.217Z,15.80
2019-06-07T04:24:24.990Z,15.90
2019-06-07T04:27:48.853Z,16.10
2019-06-07T04:31:12.740Z,16.20
2019-06-07T04:34:42.041Z,16.40
2019-06-07T04:38:02.673Z,16.60
2019-06-07T04:41:28.722Z,16.80
2019-06-07T04:44:53.756Z,16.90
2019-06-07T04:48:19.130Z,17.10
2019-06-07T04:51:44.896Z,17.30
2019-06-07T04:55:08.935Z,17.30
2019-06-07T04:58:33.368Z,17.50
2019-06-07T05:01:57.306Z,17.70
2019-06-07T05:05:20.977Z,17.80
2019-06-07T05:08:44.943Z,18.00
2019-06-07T05:12:08.873Z,18.20
2019-06-07T05:15:34.632Z,18.40
2019-06-07T05:18:58.784Z,18.70
2019-06-07T05:22:22.761Z,19.00
2019-06-07T05:25:46.636Z,19.40
2019-06-07T05:29:10.521Z,19.70
2019-06-07T05:32:36.795Z,19.90
2019-06-07T05:36:00.192Z,20.10
2019-06-07T05:39:24.174Z,20.10
2019-06-07T05:42:48.197Z,20.20
2019-06-07T05:46:12.048Z,20.50
2019-06-07T05:49:39.191Z,21.30
2019-06-07T05:53:01.270Z,21.40
2019-06-07T05:56:25.247Z,21.90
2019-06-07T05:59:49.111Z,22.40
2019-06-07T06:03:13.011Z,22.40
2019-06-07T06:06:38.813Z,22.50
2019-06-07T06:10:02.191Z,22.90
2019-06-07T06:13:26.173Z,23.10
2019-06-07T06:16:50.243Z,23.10
2019-06-07T06:20:15.341Z,23.60
2019-06-07T06:23:40.741Z,23.60
2019-06-07T06:27:18.868Z,24.20
2019-06-07T06:30:30.202Z,24.50
2019-06-07T06:33:54.035Z,24.00
2019-06-07T06:37:17.870Z,23.90
2019-06-07T06:40:46.121Z,24.20
2019-06-07T06:44:07.098Z,23.80
2019-06-07T06:47:31.046Z,24.20
2019-06-07T06:50:54.886Z,24.00
2019-06-07T06:54:39.516Z,24.40
2019-06-07T06:57:45.915Z,24.60
2019-06-07T07:01:11.383Z,25.10
2019-06-07T07:04:35.566Z,25.00
2019-06-07T07:07:59.533Z,25.20
2019-06-07T07:11:23.639Z,25.10
2019-06-07T07:14:49.645Z,25.40
2019-06-07T07:18:13.143Z,25.50
2019-06-07T07:21:37.326Z,25.50
2019-06-07T07:25:01.214Z,25.60
2019-06-07T07:28:25.283Z,26.10
2019-06-07T07:31:52.386Z,26.80
2019-06-07T07:35:14.697Z,28.80
2019-06-07T07:38:38.581Z,30.00
2019-06-07T07:42:20.247Z,30.70
2019-06-07T07:45:29.024Z,29.90
2019-06-07T07:48:54.608Z,29.00
2019-06-07T07:52:18.714Z,34.40
2019-06-07T07:55:44.916Z,34.00
2019-06-07T07:59:08.928Z,30.10
2019-06-07T08:02:33.011Z,29.40
2019-06-07T08:05:58.914Z,29.60
2019-06-07T08:09:22.565Z,35.60
2019-06-07T08:13:08.753Z,39.90
2019-06-07T08:16:16.493Z,35.60
2019-06-07T08:19:37.867Z,40.90
2019-06-07T08:23:01.936Z,46.20
2019-06-07T08:26:25.922Z,47.10
2019-06-07T08:30:10.230Z,44.60
2019-06-07T08:33:26.075Z,40.00
2019-06-07T08:36:42.614Z,34.80
2019-06-07T08:40:08.307Z,32.90
2019-06-07T08:43:33.053Z,33.40
2019-06-07T08:47:18.438Z,33.70
2019-06-07T08:50:22.606Z,33.70
2019-06-07T08:54:02.973Z,35.60
2019-06-07T08:57:21.331Z,37.50
2019-06-07T09:00:46.991Z,38.30
2019-06-07T09:04:10.084Z,39.60
2019-06-07T09:07:28.894Z,37.90
2019-06-07T09:10:54.079Z,41.70
2019-06-07T09:14:18.996Z,41.50
2019-06-07T09:18:29.712Z,38.70
2019-06-07T09:21:09.759Z,34.80
2019-06-07T09:24:34.103Z,34.10
2019-06-07T09:28:00.570Z,37.30
2019-06-07T09:31:23.631Z,41.30
2019-06-07T09:34:47.510Z,40.10
2019-06-07T09:38:24.104Z,46.40
2019-06-07T09:41:47.410Z,50.70
2019-06-07T09:45:06.572Z,52.20
2019-06-07T09:49:09.917Z,41.20
2019-06-07T09:51:53.885Z,34.20
2019-06-07T09:55:24.643Z,31.50
2019-06-07T09:58:52.858Z,29.30
2019-06-07T10:02:13.685Z,28.90
2019-06-07T10:05:36.981Z,29.20
2019-06-07T10:10:08.177Z,28.30
2019-06-07T10:12:26.584Z,27.40
2019-06-07T10:15:53.650Z,26.80
2019-06-07T10:19:16.009Z,26.20
2019-06-07T10:22:39.865Z,25.40
2019-06-07T10:26:04.112Z,25.70
2019-06-07T10:29:28.348Z,26.50
2019-06-07T10:32:52.418Z,28.10
2019-06-07T10:36:16.426Z,33.10
2019-06-07T10:39:48.628Z,35.40
2019-06-07T10:43:07.110Z,29.10
2019-06-07T10:46:31.324Z,25.10
2019-06-07T10:49:55.193Z,23.70
2019-06-07T10:53:19.096Z,23.10
2019-06-07T10:56:45.536Z,22.80
2019-06-07T11:00:11.723Z,22.60
2019-06-07T11:03:35.765Z,22.50
2019-06-07T11:06:59.756Z,22.60
2019-06-07T11:10:23.744Z,23.00
2019-06-07T11:13:47.463Z,23.10
2019-06-07T11:17:11.451Z,23.50
2019-06-07T11:20:35.376Z,24.00
2019-06-07T11:23:59.350Z,24.30
2019-06-07T11:27:23.240Z,24.50
2019-06-07T11:30:47.092Z,25.60
2019-06-07T11:34:12.477Z,26.90
2019-06-07T11:37:36.611Z,28.80
2019-06-07T11:41:00.806Z,32.20
2019-06-07T11:44:24.888Z,35.00
2019-06-07T11:47:48.985Z,37.90
2019-06-07T11:51:12.977Z,42.80
2019-06-07T11:54:36.841Z,43.90
2019-06-07T11:58:00.846Z,44.30
2019-06-07T12:01:25.010Z,46.40
2019-06-07T12:04:49.201Z,47.00
2019-06-07T12:08:14.028Z,49.30
2019-06-07T12:11:38.403Z,48.90
2019-06-07T12:15:02.489Z,48.30
2019-06-07T12:18:26.451Z,46.30
2019-06-07T12:21:50.470Z,40.50
2019-06-07T12:25:21.588Z,38.00
2019-06-07T12:28:41.819Z,34.30
2019-06-07T12:32:05.895Z,32.50
2019-06-07T12:35:31.809Z,31.30
2019-06-07T12:38:55.704Z,31.00
2019-06-07T12:42:20.605Z,30.00
2019-06-07T12:45:45.611Z,29.50
2019-06-07T12:49:09.803Z,29.20
2019-06-07T12:52:36.357Z,29.20
2019-06-07T12:56:00.398Z,29.10
2019-06-07T12:59:24.816Z,28.60
2019-06-07T13:02:49.021Z,29.00
2019-06-07T13:06:12.885Z,28.80
2019-06-07T13:09:36.875Z,28.80
2019-06-07T13:13:02.494Z,30.40
2019-06-07T13:16:28.477Z,31.80
2019-06-07T13:19:54.036Z,33.50
2019-06-07T13:23:19.217Z,35.20
2019-06-07T13:26:43.573Z,35.90
2019-06-07T13:30:10.287Z,34.60
2019-06-07T13:33:38.663Z,32.50
2019-06-07T13:36:59.985Z,31.80
2019-06-07T13:40:25.220Z,32.50
2019-06-07T13:43:51.629Z,31.80
2019-06-07T13:47:15.040Z,31.90
2019-06-07T13:50:39.012Z,31.60
2019-06-07T13:54:03.513Z,30.40
2019-06-07T13:57:28.142Z,29.50
2019-06-07T14:00:52.162Z,28.60
2019-06-07T14:04:16.289Z,28.00
2019-06-07T14:07:40.165Z,28.10
2019-06-07T14:11:04.076Z,28.20
2019-06-07T14:14:29.197Z,28.00
2019-06-07T14:17:54.161Z,27.60
2019-06-07T14:21:18.755Z,27.10
2019-06-07T14:24:42.850Z,26.90
2019-06-07T14:28:11.541Z,26.70
2019-06-07T14:31:33.702Z,26.50
2019-06-07T14:34:57.979Z,26.40
2019-06-07T14:38:23.059Z,26.30
2019-06-07T14:41:47.046Z,26.10
2019-06-07T14:45:11.432Z,26.10
2019-06-07T14:48:35.544Z,26.30
2019-06-07T14:51:59.519Z,26.60
2019-06-07T14:55:25.131Z,26.80
2019-06-07T14:58:49.336Z,27.20
2019-06-07T15:02:13.313Z,27.40
2019-06-07T15:05:37.409Z,27.20
2019-06-07T15:09:02.935Z,26.80
2019-06-07T15:12:27.500Z,26.40
2019-06-07T15:15:51.916Z,26.10
2019-06-07T15:19:16.119Z,25.80
2019-06-07T15:22:40.088Z,25.30
2019-06-07T15:26:04.191Z,25.00
2019-06-07T15:29:29.650Z,24.70
2019-06-07T15:32:53.773Z,24.30
2019-06-07T15:36:20.259Z,24.00
2019-06-07T15:39:44.219Z,23.70
2019-06-07T15:43:08.038Z,23.40
2019-06-07T15:46:33.603Z,23.20
2019-06-07T15:50:01.906Z,22.90
2019-06-07T15:53:26.694Z,22.60
2019-06-07T15:56:50.525Z,22.40
2019-06-07T16:00:19.440Z,22.10
2019-06-07T16:03:43.656Z,21.90
2019-06-07T16:07:07.673Z,21.80
2019-06-07T16:10:32.625Z,21.70
2019-06-07T16:13:56.848Z,21.60
2019-06-07T16:17:20.818Z,21.50
2019-06-07T16:20:45.021Z,21.50
2019-06-07T16:24:09.057Z,22.00
2019-06-07T16:27:34.342Z,22.40
2019-06-07T16:30:58.804Z,22.90
2019-06-07T16:34:23.148Z,23.00
2019-06-07T16:37:50.317Z,23.50
2019-06-07T16:41:14.697Z,23.70
2019-06-07T16:44:38.882Z,24.00
2019-06-07T16:48:13.820Z,24.20
2019-06-07T16:51:39.087Z,24.00
2019-06-07T16:55:03.296Z,23.30
2019-06-07T16:58:29.352Z,22.70
2019-06-07T17:01:55.041Z,22.60
2019-06-07T17:05:19.607Z,22.60
2019-06-07T17:08:44.286Z,22.50
2019-06-07T17:12:08.625Z,22.50
2019-06-07T17:15:32.814Z,22.50
2019-06-07T17:18:57.104Z,22.60
2019-06-07T17:22:22.048Z,22.50
2019-06-07T17:25:47.540Z,22.40
2019-06-07T17:29:12.341Z,22.40
2019-06-07T17:32:48.521Z,22.20
2019-06-07T17:36:02.974Z,21.80
2019-06-07T17:39:27.360Z,21.70
2019-06-07T17:42:52.400Z,21.70
2019-06-07T17:46:18.238Z,21.50
2019-06-07T17:49:44.124Z,21.30
2019-06-07T17:53:08.103Z,21.20
2019-06-07T17:56:32.445Z,21.10
2019-06-07T17:59:57.544Z,21.10
2019-06-07T18:03:21.910Z,21.10
2019-06-07T18:06:47.395Z,20.90
2019-06-07T18:10:12.136Z,20.80
2019-06-07T18:13:36.306Z,20.70
2019-06-07T18:17:00.905Z,20.60
2019-06-07T18:20:28.410Z,20.50
2019-06-07T18:23:53.005Z,20.40
2019-06-07T18:27:17.472Z,20.30
2019-06-07T18:30:41.754Z,20.00
2019-06-07T18:34:05.976Z,19.70
2019-06-07T18:37:31.681Z,19.50
2019-06-07T18:40:55.854Z,19.30
2019-06-07T18:44:21.918Z,19.20
2019-06-07T18:47:47.816Z,19.00
2019-06-07T18:51:11.925Z,18.90
2019-06-07T18:54:36.030Z,18.70
2019-06-07T18:58:00.179Z,18.60
2019-06-07T19:01:24.639Z,18.50
2019-06-07T19:04:50.493Z,18.40
2019-06-07T19:08:15.563Z,18.30
2019-06-07T19:11:41.294Z,18.20
2019-06-07T19:15:11.810Z,18.10
2019-06-07T19:18:37.388Z,18.10
2019-06-07T19:22:01.471Z,17.90
2019-06-07T19:25:25.659Z,17.90
2019-06-07T19:28:50.589Z,17.70
2019-06-07T19:32:14.861Z,17.70
2019-06-07T19:35:39.387Z,17.60
2019-06-07T19:39:03.339Z,17.60
2019-06-07T19:42:27.734Z,17.50
2019-06-07T19:45:52.075Z,17.40
2019-06-07T19:49:16.312Z,17.30
2019-06-07T19:52:40.714Z,17.20
2019-06-07T19:56:04.705Z,17.10
2019-06-07T19:59:29.420Z,17.10
2019-06-07T20:02:54.212Z,16.90
2019-06-07T20:06:18.177Z,16.90
2019-06-07T20:09:43.403Z,16.80
2019-06-07T20:13:07.620Z,16.80
2019-06-07T20:16:31.704Z,16.70
2019-06-07T20:19:56.265Z,16.60
2019-06-07T20:23:20.463Z,16.60
2019-06-07T20:26:52.547Z,16.50
2019-06-07T20:30:14.358Z,16.50
2019-06-07T20:33:38.501Z,16.40
2019-06-07T20:37:05.164Z,16.30
2019-06-07T20:40:28.571Z,16.30
2019-06-07T20:43:53.069Z,16.30
2019-06-07T20:47:17.448Z,16.20
2019-06-07T20:50:41.399Z,16.20
2019-06-07T20:54:07.371Z,16.20
2019-06-07T20:57:32.677Z,16.10
2019-06-07T21:00:58.645Z,16.20
2019-06-07T21:04:22.712Z,16.20
2019-06-07T21:07:46.816Z,16.10
2019-06-07T21:11:11.174Z,16.00
2019-06-07T21:14:35.471Z,16.00
2019-06-07T21:18:00.255Z,16.00
2019-06-07T21:21:25.278Z,15.90
2019-06-07T21:24:49.857Z,15.80
2019-06-07T21:28:14.368Z,15.80
2019-06-07T21:31:40.196Z,15.70
2019-06-07T21:35:09.984Z,15.70
2019-06-07T21:38:34.510Z,15.70
2019-06-07T21:41:59.110Z,15.70
2019-06-07T21:45:23.350Z,15.70
2019-06-07T21:48:47.592Z,15.60
2019-06-07T21:52:13.899Z,15.50
2019-06-07T21:55:38.124Z,15.50
2019-06-07T21:59:02.959Z,15.60
2019-06-07T22:02:27.206Z,15.60
2019-06-07T22:05:51.494Z,15.80
2019-06-07T22:09:16.098Z,15.70
2019-06-07T22:12:40.080Z,15.60
2019-06-07T22:16:04.140Z,15.40
2019-06-07T22:19:28.966Z,15.30
2019-06-07T22:22:53.671Z,15.30
2019-06-07T22:26:18.059Z,15.50
2019-06-07T22:29:42.561Z,15.60
2019-06-07T22:33:06.584Z,15.60
2019-06-07T22:36:31.318Z,15.60
2019-06-07T22:39:56.657Z,15.50
2019-06-07T22:43:21.160Z,15.60
2019-06-07T22:46:47.523Z,15.70
2019-06-07T22:50:12.735Z,15.60
2019-06-07T22:53:38.595Z,15.50
2019-06-07T22:57:04.870Z,15.50
2019-06-07T23:00:34.296Z,15.40
2019-06-07T23:03:58.465Z,15.40
2019-06-07T23:07:22.484Z,15.30
2019-06-07T23:10:46.740Z,15.20
2019-06-07T23:14:13.379Z,15.10
2019-06-07T23:17:37.972Z,15.20
2019-06-07T23:21:02.594Z,15.30
2019-06-07T23:24:26.548Z,15.30
2019-06-07T23:27:50.378Z,15.20
2019-06-07T23:31:14.421Z,15.30
2019-06-07T23:34:38.622Z,15.30
2019-06-07T23:38:02.476Z,15.30
2019-06-07T23:41:26.360Z,15.30
2019-06-07T23:44:50.133Z,15.30
2019-06-07T23:48:13.902Z,15.20
2019-06-07T23:51:37.823Z,15.00
2019-06-07T23:55:02.526Z,14.90
2019-06-07T23:58:26.285Z,14.80
